Time;durP1;ratioP1;P1;durP2;ratioP2;P2;SDS_P1;SDS_P2;PMS_P1;PMS_P2;Temp;Humidity;BMP_temperature;BMP_pressure;BME280_temperature;BME280_humidity;BME280_pressure;Samples;Min_cycle;Max_cycle;Signal;HPM_P1;HPM_P2
2023/08/29 00:03:03;;;;;;;0.80;0.40;;;;;;;;;;10428064;28;20699;-70
2023/08/29 00:08:05;;;;;;;0.30;0.30;;;;;;;;;;10411892;28;20272;-68
2023/08/29 00:13:06;;;;;;;0.40;0.40;;;;;;;;;;10413893;28;20204;-68
2023/08/29 00:18:08;;;;;;;0.30;0.30;;;;;;;;;;10404784;28;20219;-68
2023/08/29 00:23:09;;;;;;;0.57;0.57;;;;;;;;;;10421039;28;20634;-73
2023/08/29 00:28:11;;;;;;;0.47;0.47;;;;;;;;;;10416959;28;20591;-70
2023/08/29 00:33:12;;;;;;;0.38;0.38;;;;;;;;;;10403497;28;20199;-70
2023/08/29 00:38:14;;;;;;;1.17;0.60;;;;;;;;;;10402656;28;20613;-68
2023/08/29 00:43:15;;;;;;;0.50;0.50;;;;;;;;;;10422729;28;20600;-70
2023/08/29 00:48:16;;;;;;;0.55;0.55;;;;;;;;;;10420661;28;20254;-70
2023/08/29 00:53:17;;;;;;;0.50;0.50;;;;;;;;;;10417704;28;20227;-71
2023/08/29 00:58:19;;;;;;;0.50;0.50;;;;;;;;;;10424951;28;20602;-71
2023/08/29 01:03:20;;;;;;;0.43;0.43;;;;;;;;;;10420049;28;20221;-71
2023/08/29 01:08:21;;;;;;;0.65;0.65;;;;;;;;;;10411039;28;20259;-70
2023/08/29 01:13:25;;;;;;;0.60;0.60;;;;;;;;;;10402499;28;20218;-74
2023/08/29 01:18:28;;;;;;;0.40;0.40;;;;;;;;;;10419837;28;20251;-68
2023/08/29 01:23:49;;;;;;;0.57;0.47;;;;;;;;;;10417387;28;20217;-73
2023/08/29 01:28:51;;;;;;;0.40;0.40;;;;;;;;;;10407221;28;20306;-74
2023/08/29 01:33:52;;;;;;;0.50;0.50;;;;;;;;;;10403995;28;20215;-69
2023/08/29 01:38:53;;;;;;;0.65;0.40;;;;;;;;;;10410004;28;20302;-71
2023/08/29 01:43:54;;;;;;;0.57;0.57;;;;;;;;;;10419969;28;20619;-69
2023/08/29 01:48:59;;;;;;;0.50;0.50;;;;;;;;;;10418232;28;20232;-69
2023/08/29 01:54:00;;;;;;;2.22;0.57;;;;;;;;;;10414475;28;20206;-69
2023/08/29 01:59:02;;;;;;;0.45;0.30;;;;;;;;;;10418465;28;20215;-71
2023/08/29 02:04:04;;;;;;;0.50;0.50;;;;;;;;;;10419872;28;20221;-70
2023/08/29 02:09:05;;;;;;;0.40;0.40;;;;;;;;;;10400152;28;20227;-69
2023/08/29 02:14:11;;;;;;;2.00;0.65;;;;;;;;;;10410183;28;20227;-71
2023/08/29 02:19:12;;;;;;;0.30;0.30;;;;;;;;;;10419365;28;20223;-69
2023/08/29 02:24:13;;;;;;;0.40;0.40;;;;;;;;;;10419054;28;20211;-68
2023/08/29 02:29:14;;;;;;;0.35;0.35;;;;;;;;;;10419101;28;20218;-71
2023/08/29 02:34:17;;;;;;;0.55;0.40;;;;;;;;;;10428188;28;21150;-73
2023/08/29 02:39:18;;;;;;;0.30;0.30;;;;;;;;;;10431701;28;20214;-69
2023/08/29 02:44:19;;;;;;;1.10;0.60;;;;;;;;;;10428467;28;20241;-70
2023/08/29 02:49:20;;;;;;;2.25;0.52;;;;;;;;;;10412909;28;20667;-68
2023/08/29 02:54:21;;;;;;;0.75;0.75;;;;;;;;;;10418423;28;20234;-69
2023/08/29 02:59:23;;;;;;;0.50;0.50;;;;;;;;;;10432861;28;20221;-72
2023/08/29 03:04:24;;;;;;;0.40;0.40;;;;;;;;;;10433232;28;20266;-73
2023/08/29 03:09:28;;;;;;;0.47;0.40;;;;;;;;;;10412565;28;20211;-68
2023/08/29 03:14:29;;;;;;;1.10;0.60;;;;;;;;;;10444009;28;20215;-71
2023/08/29 03:19:31;;;;;;;0.45;0.45;;;;;;;;;;10429933;28;20222;-72
2023/08/29 03:24:32;;;;;;;0.40;0.40;;;;;;;;;;10428877;28;20218;-70
2023/08/29 03:29:33;;;;;;;1.73;0.47;;;;;;;;;;10410763;28;20207;-71
2023/08/29 03:34:34;;;;;;;0.43;0.43;;;;;;;;;;10428155;28;20218;-69
2023/08/29 03:39:35;;;;;;;0.75;0.45;;;;;;;;;;10429649;28;20214;-72
2023/08/29 03:44:36;;;;;;;0.63;0.40;;;;;;;;;;10422220;28;20218;-68
2023/08/29 03:49:37;;;;;;;0.30;0.30;;;;;;;;;;10422661;28;20247;-68
2023/08/29 03:54:39;;;;;;;0.60;0.40;;;;;;;;;;10402355;28;20211;-68
2023/08/29 03:59:40;;;;;;;1.48;0.50;;;;;;;;;;10428137;28;20211;-71
2023/08/29 04:04:44;;;;;;;0.95;0.57;;;;;;;;;;10421582;28;20246;-72
2023/08/29 04:09:45;;;;;;;0.38;0.38;;;;;;;;;;10402558;28;20223;-69
2023/08/29 04:14:46;;;;;;;0.43;0.40;;;;;;;;;;10403071;28;20227;-69
2023/08/29 04:19:47;;;;;;;0.45;0.45;;;;;;;;;;10423063;28;20250;-69
2023/08/29 04:24:49;;;;;;;0.55;0.55;;;;;;;;;;10426962;28;20603;-73
2023/08/29 04:29:50;;;;;;;0.50;0.50;;;;;;;;;;10422091;28;20637;-68
2023/08/29 04:34:51;;;;;;;0.50;0.50;;;;;;;;;;10436727;28;20214;-68
2023/08/29 04:39:53;;;;;;;0.50;0.50;;;;;;;;;;10419467;28;20230;-68
2023/08/29 04:44:54;;;;;;;0.43;0.43;;;;;;;;;;10421830;28;20233;-72
2023/08/29 04:49:55;;;;;;;1.58;0.38;;;;;;;;;;10419713;28;21001;-72
2023/08/29 04:54:57;;;;;;;0.50;0.50;;;;;;;;;;10413349;28;20204;-71
2023/08/29 05:00:00;;;;;;;0.50;0.50;;;;;;;;;;10418811;28;20246;-69
2023/08/29 05:05:01;;;;;;;3.70;0.50;;;;;;;;;;10418068;28;20215;-69
2023/08/29 05:10:02;;;;;;;0.85;0.50;;;;;;;;;;10423460;28;20215;-74
2023/08/29 05:15:04;;;;;;;0.50;0.50;;;;;;;;;;10401499;28;20392;-68
2023/08/29 05:20:08;;;;;;;3.03;0.50;;;;;;;;;;10417443;28;20290;-70
2023/08/29 05:25:09;;;;;;;1.17;0.65;;;;;;;;;;10403828;28;20609;-68
2023/08/29 05:30:11;;;;;;;0.40;0.40;;;;;;;;;;10402696;28;20644;-70
2023/08/29 05:35:12;;;;;;;0.50;0.50;;;;;;;;;;10420378;28;20181;-70
2023/08/29 05:40:13;;;;;;;0.60;0.60;;;;;;;;;;10422132;28;20253;-69
2023/08/29 05:45:15;;;;;;;2.05;0.55;;;;;;;;;;10416370;28;20228;-74
2023/08/29 05:50:16;;;;;;;0.60;0.60;;;;;;;;;;10419695;28;20706;-75
2023/08/29 05:55:17;;;;;;;0.57;0.57;;;;;;;;;;10420919;28;20183;-69
2023/08/29 06:00:19;;;;;;;0.75;0.60;;;;;;;;;;10399962;28;20673;-69
2023/08/29 06:05:20;;;;;;;0.47;0.47;;;;;;;;;;10418309;28;20258;-70
2023/08/29 06:10:21;;;;;;;0.60;0.60;;;;;;;;;;10418181;28;20195;-69
2023/08/29 06:15:22;;;;;;;0.60;0.60;;;;;;;;;;10419203;28;20322;-72
2023/08/29 06:20:23;;;;;;;0.50;0.50;;;;;;;;;;10419976;28;20199;-69
2023/08/29 06:25:24;;;;;;;6.47;0.57;;;;;;;;;;10424859;28;20226;-72
2023/08/29 06:30:25;;;;;;;0.68;0.57;;;;;;;;;;10420525;28;20223;-74
2023/08/29 06:35:26;;;;;;;0.40;0.40;;;;;;;;;;10420699;28;20214;-74
2023/08/29 06:40:28;;;;;;;0.60;0.60;;;;;;;;;;10400386;28;20238;-73
2023/08/29 06:45:29;;;;;;;0.70;0.70;;;;;;;;;;10416535;28;20203;-75
2023/08/29 06:50:30;;;;;;;0.60;0.60;;;;;;;;;;10420885;28;20741;-72
2023/08/29 06:55:34;;;;;;;0.60;0.60;;;;;;;;;;10402111;28;20203;-71
2023/08/29 07:00:35;;;;;;;3.88;0.50;;;;;;;;;;10420943;28;20219;-72
2023/08/29 07:05:37;;;;;;;2.50;0.82;;;;;;;;;;10416190;28;20226;-74
2023/08/29 07:10:38;;;;;;;0.80;0.80;;;;;;;;;;10416713;28;20230;-70
2023/08/29 07:15:39;;;;;;;0.60;0.60;;;;;;;;;;10403786;28;20245;-74
2023/08/29 07:20:40;;;;;;;0.60;0.60;;;;;;;;;;10444576;28;20248;-75
2023/08/29 07:25:43;;;;;;;0.70;0.70;;;;;;;;;;10426851;28;20515;-76
2023/08/29 07:30:45;;;;;;;0.60;0.60;;;;;;;;;;10424336;28;20294;-74
2023/08/29 07:35:47;;;;;;;1.10;0.65;;;;;;;;;;10433946;28;20215;-72
2023/08/29 07:40:48;;;;;;;0.75;0.75;;;;;;;;;;10425071;28;20241;-73
2023/08/29 07:45:52;;;;;;;0.70;0.70;;;;;;;;;;10422017;28;20317;-70
2023/08/29 07:50:54;;;;;;;0.70;0.70;;;;;;;;;;10422307;28;20238;-70
2023/08/29 07:55:55;;;;;;;0.95;0.95;;;;;;;;;;10408128;28;20215;-71
2023/08/29 08:00:56;;;;;;;0.60;0.60;;;;;;;;;;10432087;28;20211;-75
2023/08/29 08:05:57;;;;;;;0.73;0.73;;;;;;;;;;10423102;28;20230;-72
2023/08/29 08:10:58;;;;;;;0.85;0.85;;;;;;;;;;10406846;28;20239;-71
2023/08/29 08:15:59;;;;;;;0.70;0.70;;;;;;;;;;10430825;28;20297;-74
2023/08/29 08:21:01;;;;;;;0.80;0.80;;;;;;;;;;10423982;28;20297;-72
2023/08/29 08:26:04;;;;;;;0.77;0.77;;;;;;;;;;10409277;28;20234;-71
2023/08/29 08:31:06;;;;;;;0.57;0.57;;;;;;;;;;10423948;28;20286;-73
2023/08/29 08:36:07;;;;;;;0.80;0.80;;;;;;;;;;10405460;28;20307;-68
2023/08/29 08:41:10;;;;;;;1.17;1.08;;;;;;;;;;10409143;28;20215;-71
2023/08/29 08:46:14;;;;;;;2.42;1.02;;;;;;;;;;10406739;28;20222;-74
2023/08/29 08:51:16;;;;;;;0.70;0.70;;;;;;;;;;10426243;28;20353;-71
2023/08/29 08:56:17;;;;;;;0.95;0.95;;;;;;;;;;10403102;28;20242;-71
2023/08/29 09:01:18;;;;;;;0.90;0.90;;;;;;;;;;10425488;28;20202;-71
2023/08/29 09:06:19;;;;;;;0.90;0.90;;;;;;;;;;10424079;28;20663;-70
2023/08/29 09:11:20;;;;;;;1.67;1.58;;;;;;;;;;10423644;28;20222;-71
2023/08/29 09:16:21;;;;;;;1.23;1.20;;;;;;;;;;10426745;28;20237;-70
2023/08/29 09:21:22;;;;;;;1.50;1.40;;;;;;;;;;10419793;28;20238;-71
2023/08/29 09:26:30;;;;;;;1.42;1.42;;;;;;;;;;10425271;28;20299;-69
2023/08/29 09:31:31;;;;;;;1.70;1.60;;;;;;;;;;10420283;28;20583;-70
2023/08/29 09:36:33;;;;;;;1.45;1.35;;;;;;;;;;10419832;28;20214;-72
2023/08/29 09:41:35;;;;;;;1.10;1.08;;;;;;;;;;10414878;28;20468;-72
2023/08/29 09:46:37;;;;;;;1.75;1.65;;;;;;;;;;10417999;28;20215;-73
2023/08/29 09:51:38;;;;;;;1.65;1.58;;;;;;;;;;10419277;28;20330;-70
2023/08/29 09:56:42;;;;;;;1.40;1.30;;;;;;;;;;10402953;28;20222;-71
2023/08/29 10:01:45;;;;;;;1.60;1.58;;;;;;;;;;10422816;28;20207;-72
2023/08/29 10:06:47;;;;;;;1.98;1.88;;;;;;;;;;10408313;28;20418;-74
2023/08/29 10:11:49;;;;;;;1.50;1.50;;;;;;;;;;10422394;28;20203;-71
2023/08/29 10:16:50;;;;;;;2.05;1.95;;;;;;;;;;10408177;28;20283;-69
2023/08/29 10:21:53;;;;;;;1.63;1.52;;;;;;;;;;10417883;28;20225;-71
2023/08/29 10:26:54;;;;;;;1.48;1.42;;;;;;;;;;10402379;28;20637;-70
2023/08/29 10:31:56;;;;;;;2.53;1.98;;;;;;;;;;10426499;28;20218;-72
2023/08/29 10:36:58;;;;;;;1.13;1.13;;;;;;;;;;10419681;28;20697;-73
2023/08/29 10:42:00;;;;;;;3.08;1.27;;;;;;;;;;10420611;28;20597;-69
2023/08/29 10:47:30;;;;;;;1.45;1.45;;;;;;;;;;10403813;28;20214;-73
2023/08/29 10:52:40;;;;;;;1.35;1.35;;;;;;;;;;10438025;28;20214;-69
2023/08/29 10:57:42;;;;;;;2.40;2.30;;;;;;;;;;10417329;28;20211;-74
2023/08/29 11:02:43;;;;;;;2.60;1.73;;;;;;;;;;10430425;28;20235;-72
2023/08/29 11:07:44;;;;;;;2.22;2.13;;;;;;;;;;10413372;28;20290;-71
2023/08/29 11:13:06;;;;;;;2.08;1.95;;;;;;;;;;10426430;28;20302;-71
2023/08/29 11:18:26;;;;;;;1.88;1.77;;;;;;;;;;10435689;28;20223;-72
2023/08/29 11:23:28;;;;;;;1.40;1.40;;;;;;;;;;10417219;28;20207;-71
2023/08/29 11:28:31;;;;;;;1.15;1.05;;;;;;;;;;10428762;28;20222;-72
2023/08/29 11:33:33;;;;;;;2.40;1.13;;;;;;;;;;10415172;28;20286;-73
2023/08/29 11:38:34;;;;;;;1.17;1.00;;;;;;;;;;10427656;28;20469;-72
2023/08/29 11:43:36;;;;;;;1.00;1.00;;;;;;;;;;10416120;28;20278;-73
2023/08/29 11:48:37;;;;;;;0.70;0.70;;;;;;;;;;10427779;28;20774;-72
2023/08/29 11:53:38;;;;;;;0.80;0.80;;;;;;;;;;10426337;28;20273;-72
2023/08/29 11:58:40;;;;;;;1.38;0.77;;;;;;;;;;10409950;28;20779;-72
2023/08/29 12:03:41;;;;;;;2.05;0.75;;;;;;;;;;10410178;28;20612;-71
2023/08/29 12:08:42;;;;;;;0.70;0.70;;;;;;;;;;10426815;28;20218;-74
2023/08/29 12:14:05;;;;;;;0.60;0.60;;;;;;;;;;10421810;28;20275;-72
2023/08/29 12:19:08;;;;;;;3.65;0.60;;;;;;;;;;10425943;28;20219;-75
2023/08/29 12:24:13;;;;;;;0.50;0.50;;;;;;;;;;10423824;28;20230;-71
2023/08/29 12:29:16;;;;;;;0.30;0.30;;;;;;;;;;10409952;28;20718;-70
2023/08/29 12:34:17;;;;;;;0.40;0.40;;;;;;;;;;10423546;28;20669;-72
2023/08/29 12:39:18;;;;;;;0.40;0.40;;;;;;;;;;10419864;28;20215;-71
2023/08/29 12:44:19;;;;;;;0.30;0.30;;;;;;;;;;10429151;28;20219;-72
2023/08/29 12:49:20;;;;;;;0.65;0.40;;;;;;;;;;10407642;28;20211;-71
2023/08/29 12:54:21;;;;;;;0.30;0.30;;;;;;;;;;10419991;28;20258;-71
2023/08/29 12:59:26;;;;;;;0.30;0.30;;;;;;;;;;10422063;28;20218;-73
2023/08/29 13:04:27;;;;;;;0.40;0.40;;;;;;;;;;10429996;28;20708;-72
2023/08/29 13:09:28;;;;;;;0.30;0.30;;;;;;;;;;10420611;28;20218;-75
2023/08/29 13:14:29;;;;;;;0.30;0.30;;;;;;;;;;10410904;28;20231;-73
2023/08/29 13:19:32;;;;;;;3.63;0.30;;;;;;;;;;10431636;28;20689;-75
2023/08/29 13:24:33;;;;;;;0.30;0.30;;;;;;;;;;10422323;28;20222;-73
2023/08/29 13:29:34;;;;;;;0.40;0.40;;;;;;;;;;10406538;28;20302;-72
2023/08/29 13:34:35;;;;;;;0.20;0.20;;;;;;;;;;10435653;28;20253;-71
2023/08/29 13:39:36;;;;;;;0.30;0.30;;;;;;;;;;10426285;28;20221;-72
2023/08/29 13:44:37;;;;;;;0.30;0.30;;;;;;;;;;10419294;28;20213;-73
2023/08/29 13:49:39;;;;;;;0.40;0.40;;;;;;;;;;10402722;28;20583;-71
2023/08/29 13:54:40;;;;;;;0.30;0.30;;;;;;;;;;10416597;28;20272;-72
2023/08/29 13:59:41;;;;;;;0.20;0.20;;;;;;;;;;10420123;28;20234;-70
2023/08/29 14:04:42;;;;;;;0.40;0.40;;;;;;;;;;10404428;28;20203;-73
2023/08/29 14:09:44;;;;;;;0.30;0.30;;;;;;;;;;10423066;28;20264;-73
2023/08/29 14:14:45;;;;;;;0.40;0.40;;;;;;;;;;10403262;28;20221;-72
2023/08/29 14:19:46;;;;;;;0.70;0.40;;;;;;;;;;10405311;28;20218;-72
2023/08/29 14:24:47;;;;;;;0.40;0.40;;;;;;;;;;10422470;28;20687;-71
2023/08/29 14:29:49;;;;;;;0.98;0.30;;;;;;;;;;10402519;28;20782;-72
2023/08/29 14:34:50;;;;;;;0.45;0.30;;;;;;;;;;10402447;28;20211;-72
2023/08/29 14:39:51;;;;;;;0.30;0.30;;;;;;;;;;10418583;28;20218;-69
2023/08/29 14:44:52;;;;;;;2.30;0.38;;;;;;;;;;10417358;28;20269;-72
2023/08/29 14:49:53;;;;;;;0.20;0.20;;;;;;;;;;10415344;28;20238;-74
2023/08/29 14:54:54;;;;;;;0.20;0.20;;;;;;;;;;10417957;28;20297;-69
2023/08/29 14:59:57;;;;;;;0.30;0.30;;;;;;;;;;10399411;28;20303;-71
2023/08/29 15:04:58;;;;;;;0.20;0.20;;;;;;;;;;10419805;28;20286;-73
2023/08/29 15:09:59;;;;;;;0.20;0.20;;;;;;;;;;10406689;28;20214;-72
2023/08/29 15:15:01;;;;;;;1.30;0.30;;;;;;;;;;10414842;28;20288;-71
2023/08/29 15:20:07;;;;;;;0.30;0.30;;;;;;;;;;10400384;28;20705;-72
2023/08/29 15:25:12;;;;;;;0.73;0.30;;;;;;;;;;10418945;28;20208;-71
2023/08/29 15:30:13;;;;;;;0.63;0.38;;;;;;;;;;10405327;28;20277;-72
2023/08/29 15:35:14;;;;;;;0.30;0.30;;;;;;;;;;10416977;28;20632;-71
2023/08/29 15:40:15;;;;;;;0.45;0.40;;;;;;;;;;10423719;28;20206;-71
2023/08/29 15:45:16;;;;;;;0.50;0.50;;;;;;;;;;10409832;28;20722;-73
2023/08/29 15:50:17;;;;;;;0.40;0.40;;;;;;;;;;10408449;28;20277;-74
2023/08/29 15:55:18;;;;;;;0.40;0.40;;;;;;;;;;10423888;28;20673;-67
2023/08/29 16:00:20;;;;;;;0.30;0.30;;;;;;;;;;10429938;28;20238;-72
2023/08/29 16:05:21;;;;;;;0.25;0.25;;;;;;;;;;10423560;28;20197;-73
2023/08/29 16:10:22;;;;;;;2.90;0.38;;;;;;;;;;10421419;28;20477;-70
2023/08/29 16:15:23;;;;;;;0.40;0.40;;;;;;;;;;10422093;28;20701;-70
2023/08/29 16:20:24;;;;;;;0.30;0.30;;;;;;;;;;10407253;28;20211;-71
2023/08/29 16:25:27;;;;;;;0.30;0.30;;;;;;;;;;10429180;28;20207;-72
2023/08/29 16:30:28;;;;;;;0.50;0.50;;;;;;;;;;10424788;28;20250;-71
2023/08/29 16:35:29;;;;;;;0.63;0.40;;;;;;;;;;10410907;28;20265;-72
2023/08/29 16:40:30;;;;;;;0.30;0.30;;;;;;;;;;10422604;28;20218;-72
2023/08/29 16:45:34;;;;;;;0.30;0.30;;;;;;;;;;10420826;28;20241;-72
2023/08/29 16:50:35;;;;;;;2.78;0.50;;;;;;;;;;10422021;28;20220;-74
2023/08/29 16:55:36;;;;;;;0.30;0.30;;;;;;;;;;10419313;28;20211;-72
2023/08/29 17:00:38;;;;;;;0.30;0.30;;;;;;;;;;10423643;28;20223;-71
2023/08/29 17:05:39;;;;;;;0.30;0.30;;;;;;;;;;10419627;28;20503;-71
2023/08/29 17:10:41;;;;;;;0.38;0.30;;;;;;;;;;10419386;28;20238;-75
2023/08/29 17:15:42;;;;;;;0.40;0.40;;;;;;;;;;10418274;28;20713;-69
2023/08/29 17:20:43;;;;;;;0.75;0.30;;;;;;;;;;10402526;28;20653;-71
2023/08/29 17:25:44;;;;;;;0.22;0.22;;;;;;;;;;10408544;28;20653;-69
2023/08/29 17:30:45;;;;;;;0.30;0.30;;;;;;;;;;10422700;28;20226;-68
2023/08/29 17:35:47;;;;;;;0.40;0.40;;;;;;;;;;10417132;28;20214;-70
2023/08/29 17:40:48;;;;;;;0.30;0.30;;;;;;;;;;10420578;28;20211;-71
2023/08/29 17:45:55;;;;;;;0.30;0.30;;;;;;;;;;10417921;28;20453;-68
2023/08/29 17:50:59;;;;;;;0.32;0.32;;;;;;;;;;10409505;28;20242;-69
2023/08/29 17:56:00;;;;;;;3.20;0.47;;;;;;;;;;10417546;28;20261;-71
2023/08/29 18:01:01;;;;;;;0.40;0.40;;;;;;;;;;10415257;28;20203;-68
2023/08/29 18:06:02;;;;;;;0.40;0.40;;;;;;;;;;10414453;28;20234;-72
2023/08/29 18:11:04;;;;;;;0.40;0.40;;;;;;;;;;10425405;28;20207;-70
2023/08/29 18:16:10;;;;;;;0.40;0.40;;;;;;;;;;10416702;28;20223;-75
2023/08/29 18:21:12;;;;;;;2.47;0.30;;;;;;;;;;10416162;28;20411;-71
2023/08/29 18:26:13;;;;;;;0.40;0.40;;;;;;;;;;10409629;28;20215;-69
2023/08/29 18:31:14;;;;;;;0.22;0.22;;;;;;;;;;10400873;28;20282;-72
2023/08/29 18:36:15;;;;;;;0.38;0.38;;;;;;;;;;10410131;28;20215;-69
2023/08/29 18:41:16;;;;;;;0.68;0.68;;;;;;;;;;10417877;28;20214;-72
2023/08/29 18:46:17;;;;;;;0.30;0.30;;;;;;;;;;10418506;28;20215;-73
2023/08/29 18:51:18;;;;;;;1.10;0.30;;;;;;;;;;10400407;28;20823;-70
2023/08/29 18:56:20;;;;;;;0.30;0.30;;;;;;;;;;10408416;28;20720;-70
2023/08/29 19:01:21;;;;;;;0.30;0.30;;;;;;;;;;10397519;28;20707;-70
2023/08/29 19:06:22;;;;;;;1.13;0.22;;;;;;;;;;10416865;28;20215;-70
2023/08/29 19:11:23;;;;;;;0.30;0.30;;;;;;;;;;10417495;28;20497;-69
2023/08/29 19:16:24;;;;;;;0.30;0.30;;;;;;;;;;10425160;28;20230;-68
2023/08/29 19:21:26;;;;;;;0.50;0.50;;;;;;;;;;10412438;28;20219;-72
2023/08/29 19:26:27;;;;;;;0.57;0.52;;;;;;;;;;10425398;28;20623;-69
2023/08/29 19:31:28;;;;;;;0.43;0.43;;;;;;;;;;10423186;28;20727;-70
2023/08/29 19:36:29;;;;;;;0.50;0.50;;;;;;;;;;10421777;28;20685;-72
2023/08/29 19:41:32;;;;;;;0.50;0.50;;;;;;;;;;10414919;28;20715;-73
2023/08/29 19:46:35;;;;;;;0.57;0.43;;;;;;;;;;10425715;28;20215;-71
2023/08/29 19:51:36;;;;;;;0.50;0.50;;;;;;;;;;10424822;28;20215;-69
2023/08/29 19:56:37;;;;;;;0.93;0.30;;;;;;;;;;10422072;28;20238;-71
2023/08/29 20:01:38;;;;;;;0.30;0.30;;;;;;;;;;10412473;28;20212;-70
2023/08/29 20:06:40;;;;;;;0.47;0.47;;;;;;;;;;10427594;28;20210;-74
2023/08/29 20:11:41;;;;;;;0.68;0.50;;;;;;;;;;10426919;28;20230;-74
2023/08/29 20:16:42;;;;;;;0.55;0.40;;;;;;;;;;10427483;28;20301;-74
2023/08/29 20:21:43;;;;;;;0.57;0.40;;;;;;;;;;10407958;28;20207;-73
2023/08/29 20:26:44;;;;;;;0.95;0.70;;;;;;;;;;10425951;28;20290;-69
2023/08/29 20:31:45;;;;;;;1.10;0.60;;;;;;;;;;10426061;28;20674;-69
2023/08/29 20:36:48;;;;;;;1.00;0.70;;;;;;;;;;10392611;28;20776;-68
2023/08/29 20:41:49;;;;;;;0.50;0.40;;;;;;;;;;10423114;28;20199;-69
2023/08/29 20:46:50;;;;;;;2.15;0.50;;;;;;;;;;10417365;28;20631;-70
2023/08/29 20:51:51;;;;;;;0.40;0.40;;;;;;;;;;10427086;28;20612;-69
2023/08/29 20:56:52;;;;;;;0.52;0.50;;;;;;;;;;10413305;28;20237;-72
2023/08/29 21:01:53;;;;;;;4.13;0.65;;;;;;;;;;10418748;28;20298;-73
2023/08/29 21:06:55;;;;;;;1.00;0.50;;;;;;;;;;10405945;28;20853;-71
2023/08/29 21:11:56;;;;;;;0.40;0.40;;;;;;;;;;10423905;28;20211;-73
2023/08/29 21:16:57;;;;;;;0.40;0.40;;;;;;;;;;10422303;28;20227;-68
2023/08/29 21:21:58;;;;;;;0.40;0.40;;;;;;;;;;10420808;28;20291;-70
2023/08/29 21:26:59;;;;;;;0.52;0.52;;;;;;;;;;10403696;28;20203;-68
2023/08/29 21:32:00;;;;;;;0.70;0.70;;;;;;;;;;10404492;28;20290;-69
2023/08/29 21:37:01;;;;;;;0.65;0.63;;;;;;;;;;10401375;28;20214;-68
2023/08/29 21:42:03;;;;;;;0.60;0.60;;;;;;;;;;10419784;28;20206;-70
2023/08/29 21:47:04;;;;;;;0.77;0.77;;;;;;;;;;10417916;28;20222;-69
2023/08/29 21:52:05;;;;;;;0.50;0.50;;;;;;;;;;10418373;28;20207;-72
2023/08/29 21:57:07;;;;;;;0.70;0.70;;;;;;;;;;10421748;28;20218;-69
2023/08/29 22:02:08;;;;;;;0.65;0.50;;;;;;;;;;10416619;28;20268;-70
2023/08/29 22:07:09;;;;;;;2.40;0.60;;;;;;;;;;10401780;28;20211;-69
2023/08/29 22:12:10;;;;;;;0.47;0.47;;;;;;;;;;10403482;28;20716;-70
2023/08/29 22:17:11;;;;;;;0.40;0.40;;;;;;;;;;10407755;28;20460;-70
2023/08/29 22:22:12;;;;;;;0.45;0.45;;;;;;;;;;10421124;28;20316;-69
2023/08/29 22:27:13;;;;;;;0.45;0.45;;;;;;;;;;10419777;28;20218;-68
2023/08/29 22:32:14;;;;;;;0.60;0.60;;;;;;;;;;10395687;28;20831;-71
2023/08/29 22:37:15;;;;;;;0.52;0.50;;;;;;;;;;10409376;28;20214;-69
2023/08/29 22:42:16;;;;;;;0.40;0.40;;;;;;;;;;10399891;28;20222;-69
2023/08/29 22:47:18;;;;;;;2.05;0.60;;;;;;;;;;10402632;28;20234;-69
2023/08/29 22:52:19;;;;;;;0.70;0.70;;;;;;;;;;10427120;28;20207;-72
2023/08/29 22:57:20;;;;;;;4.05;0.55;;;;;;;;;;10407893;28;20223;-72
2023/08/29 23:02:22;;;;;;;0.60;0.60;;;;;;;;;;10425388;28;20211;-70
2023/08/29 23:07:23;;;;;;;0.57;0.57;;;;;;;;;;10423101;28;20425;-69
2023/08/29 23:12:24;;;;;;;0.65;0.65;;;;;;;;;;10424951;28;20739;-68
2023/08/29 23:17:25;;;;;;;0.70;0.70;;;;;;;;;;10426981;28;20222;-69
2023/08/29 23:22:26;;;;;;;0.50;0.50;;;;;;;;;;10423188;28;20821;-69
2023/08/29 23:27:27;;;;;;;0.80;0.80;;;;;;;;;;10405558;28;20235;-71
2023/08/29 23:32:29;;;;;;;0.50;0.50;;;;;;;;;;10427323;28;20242;-69
2023/08/29 23:37:30;;;;;;;0.70;0.70;;;;;;;;;;10407465;28;20210;-72
2023/08/29 23:42:31;;;;;;;0.65;0.65;;;;;;;;;;10425526;28;20562;-74
2023/08/29 23:47:32;;;;;;;0.65;0.65;;;;;;;;;;10425525;28;20284;-74
2023/08/29 23:52:33;;;;;;;0.70;0.70;;;;;;;;;;10426835;28;20211;-70
2023/08/29 23:57:34;;;;;;;0.85;0.85;;;;;;;;;;10407027;28;21262;-70
